<?xml version="1.0" encoding="UTF-8" standalone="no" ?>
<gpx xmlns="http://www.topografix.com/GPX/1/1" xmlns:xsi="http://www.w3.org/2001/XMLSchema-instance" xsi:schemaLocation="http://www.topografix.com/GPX/1/1 http://www.topografix.com/GPX/1/1/gpx.xsd" version="1.1" creator="VisuGPX - https://www.visugpx.com">
  <metadata>
    <name>7472341-Le Traict de Pen-Bé</name>
  </metadata>
  <trk>
    <name><![CDATA[7472341-Le Traict de Pen-Bé]]></name>
    <extensions>
      <line xmlns="http://www.topografix.com/GPX/gpx_style/0/2">
        <color>0000FF</color>
        <width>4</width>
      </line>
    </extensions>
    <trkseg>
      <trkpt lat="47.42951" lon="-2.39181">
        <ele>11</ele>
        <time>2022-08-05T09:15:36Z</time>
      </trkpt>
      <trkpt lat="47.42935" lon="-2.39256">
        <ele>9</ele>
        <time>2022-08-05T09:16:47Z</time>
      </trkpt>
      <trkpt lat="47.42929" lon="-2.39344">
        <ele>9</ele>
        <time>2022-08-05T09:18:07Z</time>
      </trkpt>
      <trkpt lat="47.42887" lon="-2.39488">
        <ele>12</ele>
        <time>2022-08-05T09:20:28Z</time>
      </trkpt>
      <trkpt lat="47.42874" lon="-2.39655">
        <ele>15</ele>
        <time>2022-08-05T09:23:00Z</time>
      </trkpt>
      <trkpt lat="47.42899" lon="-2.3979">
        <ele>15</ele>
        <time>2022-08-05T09:25:07Z</time>
      </trkpt>
      <trkpt lat="47.43385" lon="-2.39773">
        <ele>11</ele>
        <time>2022-08-05T09:35:55Z</time>
      </trkpt>
      <trkpt lat="47.43494" lon="-2.39788">
        <ele>13</ele>
        <time>2022-08-05T09:38:21Z</time>
      </trkpt>
      <trkpt lat="47.4369" lon="-2.40129">
        <ele>22</ele>
        <time>2022-08-05T09:45:05Z</time>
      </trkpt>
      <trkpt lat="47.43817" lon="-2.40393">
        <ele>22</ele>
        <time>2022-08-05T09:49:58Z</time>
      </trkpt>
      <trkpt lat="47.43891" lon="-2.40606">
        <ele>20</ele>
        <time>2022-08-05T09:53:34Z</time>
      </trkpt>
      <trkpt lat="47.43923" lon="-2.40702">
        <ele>22</ele>
        <time>2022-08-05T09:55:10Z</time>
      </trkpt>
      <trkpt lat="47.43981" lon="-2.41181">
        <ele>27</ele>
        <time>2022-08-05T10:02:30Z</time>
      </trkpt>
      <trkpt lat="47.44013" lon="-2.41149">
        <ele>27</ele>
        <time>2022-08-05T10:03:21Z</time>
      </trkpt>
      <trkpt lat="47.44176" lon="-2.41125">
        <ele>25</ele>
        <time>2022-08-05T10:07:00Z</time>
      </trkpt>
      <trkpt lat="47.44491" lon="-2.41176">
        <ele>20</ele>
        <time>2022-08-05T10:14:03Z</time>
      </trkpt>
      <trkpt lat="47.44595" lon="-2.41215">
        <ele>22</ele>
        <time>2022-08-05T10:16:26Z</time>
      </trkpt>
      <trkpt lat="47.44753" lon="-2.41191">
        <ele>28</ele>
        <time>2022-08-05T10:19:58Z</time>
      </trkpt>
      <trkpt lat="47.44971" lon="-2.41243">
        <ele>27</ele>
        <time>2022-08-05T10:24:52Z</time>
      </trkpt>
      <trkpt lat="47.45065" lon="-2.41322">
        <ele>27</ele>
        <time>2022-08-05T10:27:17Z</time>
      </trkpt>
      <trkpt lat="47.45197" lon="-2.41022">
        <ele>29</ele>
        <time>2022-08-05T10:32:40Z</time>
      </trkpt>
      <trkpt lat="47.45022" lon="-2.40745">
        <ele>37</ele>
        <time>2022-08-05T10:38:22Z</time>
      </trkpt>
      <trkpt lat="47.45061" lon="-2.40694">
        <ele>37</ele>
        <time>2022-08-05T10:39:31Z</time>
      </trkpt>
      <trkpt lat="47.45044" lon="-2.40629">
        <ele>38</ele>
        <time>2022-08-05T10:40:34Z</time>
      </trkpt>
      <trkpt lat="47.45283" lon="-2.40595">
        <ele>36</ele>
        <time>2022-08-05T10:45:55Z</time>
      </trkpt>
      <trkpt lat="47.45342" lon="-2.40552">
        <ele>40</ele>
        <time>2022-08-05T10:47:22Z</time>
      </trkpt>
      <trkpt lat="47.4557" lon="-2.40676">
        <ele>31</ele>
        <time>2022-08-05T10:52:47Z</time>
      </trkpt>
      <trkpt lat="47.45605" lon="-2.41277">
        <ele>16</ele>
        <time>2022-08-05T11:01:51Z</time>
      </trkpt>
      <trkpt lat="47.4563" lon="-2.41496">
        <ele>17</ele>
        <time>2022-08-05T11:05:11Z</time>
      </trkpt>
      <trkpt lat="47.45652" lon="-2.41664">
        <ele>21</ele>
        <time>2022-08-05T11:07:46Z</time>
      </trkpt>
      <trkpt lat="47.45699" lon="-2.42144">
        <ele>27</ele>
        <time>2022-08-05T11:15:03Z</time>
      </trkpt>
      <trkpt lat="47.45663" lon="-2.42676">
        <ele>25</ele>
        <time>2022-08-05T11:23:06Z</time>
      </trkpt>
      <trkpt lat="47.45663" lon="-2.42803">
        <ele>24</ele>
        <time>2022-08-05T11:25:00Z</time>
      </trkpt>
      <trkpt lat="47.45504" lon="-2.43056">
        <ele>14</ele>
        <time>2022-08-05T11:30:12Z</time>
      </trkpt>
      <trkpt lat="47.45506" lon="-2.43251">
        <ele>16</ele>
        <time>2022-08-05T11:33:08Z</time>
      </trkpt>
      <trkpt lat="47.4554" lon="-2.43311">
        <ele>17</ele>
        <time>2022-08-05T11:34:19Z</time>
      </trkpt>
      <trkpt lat="47.45588" lon="-2.43483">
        <ele>16</ele>
        <time>2022-08-05T11:37:06Z</time>
      </trkpt>
      <trkpt lat="47.45652" lon="-2.43644">
        <ele>19</ele>
        <time>2022-08-05T11:39:55Z</time>
      </trkpt>
      <trkpt lat="47.45714" lon="-2.43738">
        <ele>21</ele>
        <time>2022-08-05T11:41:53Z</time>
      </trkpt>
      <trkpt lat="47.45752" lon="-2.43893">
        <ele>19</ele>
        <time>2022-08-05T11:44:22Z</time>
      </trkpt>
      <trkpt lat="47.45589" lon="-2.43968">
        <ele>12</ele>
        <time>2022-08-05T11:48:10Z</time>
      </trkpt>
      <trkpt lat="47.45493" lon="-2.43987">
        <ele>8</ele>
        <time>2022-08-05T11:50:19Z</time>
      </trkpt>
      <trkpt lat="47.4543" lon="-2.44286">
        <ele>2</ele>
        <time>2022-08-05T11:55:02Z</time>
      </trkpt>
      <trkpt lat="47.45357" lon="-2.44676">
        <ele>10</ele>
        <time>2022-08-05T12:01:07Z</time>
      </trkpt>
      <trkpt lat="47.45245" lon="-2.44623">
        <ele>11</ele>
        <time>2022-08-05T12:03:44Z</time>
      </trkpt>
      <trkpt lat="47.45189" lon="-2.44659">
        <ele>12</ele>
        <time>2022-08-05T12:05:05Z</time>
      </trkpt>
      <trkpt lat="47.45171" lon="-2.4488">
        <ele>7</ele>
        <time>2022-08-05T12:08:26Z</time>
      </trkpt>
      <trkpt lat="47.4502" lon="-2.44944">
        <ele>7</ele>
        <time>2022-08-05T12:11:56Z</time>
      </trkpt>
      <trkpt lat="47.44861" lon="-2.44959">
        <ele>10</ele>
        <time>2022-08-05T12:15:28Z</time>
      </trkpt>
      <trkpt lat="47.44809" lon="-2.44942">
        <ele>10</ele>
        <time>2022-08-05T12:16:40Z</time>
      </trkpt>
      <trkpt lat="47.447" lon="-2.44972">
        <ele>8</ele>
        <time>2022-08-05T12:19:07Z</time>
      </trkpt>
      <trkpt lat="47.44645" lon="-2.45028">
        <ele>7</ele>
        <time>2022-08-05T12:20:37Z</time>
      </trkpt>
      <trkpt lat="47.44518" lon="-2.45234">
        <ele>5</ele>
        <time>2022-08-05T12:24:48Z</time>
      </trkpt>
      <trkpt lat="47.44151" lon="-2.44846">
        <ele>3</ele>
        <time>2022-08-05T12:34:50Z</time>
      </trkpt>
      <trkpt lat="47.4388" lon="-2.44623">
        <ele>5</ele>
        <time>2022-08-05T12:41:44Z</time>
      </trkpt>
      <trkpt lat="47.43569" lon="-2.44565">
        <ele>4</ele>
        <time>2022-08-05T12:48:42Z</time>
      </trkpt>
      <trkpt lat="47.4353" lon="-2.44668">
        <ele>2</ele>
        <time>2022-08-05T12:50:29Z</time>
      </trkpt>
      <trkpt lat="47.43495" lon="-2.44734">
        <ele>3</ele>
        <time>2022-08-05T12:51:45Z</time>
      </trkpt>
      <trkpt lat="47.43504" lon="-2.4482">
        <ele>4</ele>
        <time>2022-08-05T12:53:03Z</time>
      </trkpt>
      <trkpt lat="47.43488" lon="-2.44904">
        <ele>5</ele>
        <time>2022-08-05T12:54:22Z</time>
      </trkpt>
      <trkpt lat="47.43489" lon="-2.44976">
        <ele>8.4</ele>
      </trkpt>
      <trkpt lat="47.43505" lon="-2.45037">
        <ele>3</ele>
        <time>2022-08-05T12:56:24Z</time>
      </trkpt>
      <trkpt lat="47.4347" lon="-2.4509">
        <ele>5</ele>
        <time>2022-08-05T12:57:31Z</time>
      </trkpt>
      <trkpt lat="47.43441" lon="-2.45138">
        <ele>5</ele>
        <time>2022-08-05T12:58:29Z</time>
      </trkpt>
      <trkpt lat="47.43415" lon="-2.45176">
        <ele>5</ele>
        <time>2022-08-05T12:59:18Z</time>
      </trkpt>
      <trkpt lat="47.43391" lon="-2.45196">
        <ele>10.9</ele>
      </trkpt>
      <trkpt lat="47.43319" lon="-2.45181">
        <ele>11.5</ele>
      </trkpt>
      <trkpt lat="47.43259" lon="-2.45187">
        <ele>9</ele>
        <time>2022-08-05T13:02:46Z</time>
      </trkpt>
      <trkpt lat="47.43228" lon="-2.45212">
        <ele>13</ele>
      </trkpt>
      <trkpt lat="47.43214" lon="-2.45266">
        <ele>6</ele>
        <time>2022-08-05T13:04:20Z</time>
      </trkpt>
      <trkpt lat="47.43157" lon="-2.4529">
        <ele>9</ele>
        <time>2022-08-05T13:05:39Z</time>
      </trkpt>
      <trkpt lat="47.43139" lon="-2.45341">
        <ele>7</ele>
        <time>2022-08-05T13:06:31Z</time>
      </trkpt>
      <trkpt lat="47.42971" lon="-2.45423">
        <ele>12</ele>
        <time>2022-08-05T13:10:27Z</time>
      </trkpt>
      <trkpt lat="47.42942" lon="-2.45428">
        <ele>18.3</ele>
      </trkpt>
      <trkpt lat="47.42917" lon="-2.45461">
        <ele>18.4</ele>
      </trkpt>
      <trkpt lat="47.42813" lon="-2.45538">
        <ele>14.9</ele>
      </trkpt>
      <trkpt lat="47.42781" lon="-2.45553">
        <ele>16.5</ele>
        <time>2022-08-05T13:15:08Z</time>
      </trkpt>
      <trkpt lat="47.42745" lon="-2.45596">
        <ele>11.2</ele>
      </trkpt>
      <trkpt lat="47.42701" lon="-2.45622">
        <ele>8</ele>
        <time>2022-08-05T13:17:10Z</time>
      </trkpt>
      <trkpt lat="47.42698" lon="-2.45638">
        <ele>13.5</ele>
      </trkpt>
      <trkpt lat="47.42666" lon="-2.45715">
        <ele>5</ele>
        <time>2022-08-05T13:18:46Z</time>
      </trkpt>
      <trkpt lat="47.42504" lon="-2.45735">
        <ele>8.3</ele>
        <time>2022-08-05T13:22:22Z</time>
      </trkpt>
      <trkpt lat="47.4248" lon="-2.4573">
        <ele>8.5</ele>
      </trkpt>
      <trkpt lat="47.42457" lon="-2.45762">
        <ele>6.9</ele>
      </trkpt>
      <trkpt lat="47.42447" lon="-2.45777">
        <ele>9.4</ele>
        <time>2022-08-05T13:23:47Z</time>
      </trkpt>
      <trkpt lat="47.42429" lon="-2.45781">
        <ele>8.1</ele>
      </trkpt>
      <trkpt lat="47.42411" lon="-2.4578">
        <ele>7.5</ele>
      </trkpt>
      <trkpt lat="47.42401" lon="-2.45762">
        <ele>3</ele>
        <time>2022-08-05T13:24:47Z</time>
      </trkpt>
      <trkpt lat="47.42393" lon="-2.45733">
        <ele>7.6</ele>
      </trkpt>
      <trkpt lat="47.42395" lon="-2.45695">
        <ele>3</ele>
        <time>2022-08-05T13:25:48Z</time>
      </trkpt>
      <trkpt lat="47.4246" lon="-2.45616">
        <ele>5</ele>
        <time>2022-08-05T13:27:41Z</time>
      </trkpt>
      <trkpt lat="47.42495" lon="-2.45577">
        <ele>6</ele>
        <time>2022-08-05T13:28:39Z</time>
      </trkpt>
      <trkpt lat="47.42556" lon="-2.45474">
        <ele>5</ele>
        <time>2022-08-05T13:30:43Z</time>
      </trkpt>
      <trkpt lat="47.42599" lon="-2.45307">
        <ele>2</ele>
        <time>2022-08-05T13:33:24Z</time>
      </trkpt>
      <trkpt lat="47.42553" lon="-2.4506">
        <ele>4</ele>
        <time>2022-08-05T13:37:15Z</time>
      </trkpt>
      <trkpt lat="47.42476" lon="-2.44957">
        <ele>4</ele>
        <time>2022-08-05T13:39:51Z</time>
      </trkpt>
      <trkpt lat="47.42464" lon="-2.44947">
        <ele>3.9</ele>
      </trkpt>
      <trkpt lat="47.42149" lon="-2.44693">
        <ele>3</ele>
        <time>2022-08-05T13:47:56Z</time>
      </trkpt>
      <trkpt lat="47.42215" lon="-2.44455">
        <ele>6</ele>
        <time>2022-08-05T13:51:49Z</time>
      </trkpt>
      <trkpt lat="47.42196" lon="-2.44309">
        <ele>4</ele>
        <time>2022-08-05T13:54:03Z</time>
      </trkpt>
      <trkpt lat="47.42218" lon="-2.44185">
        <ele>4</ele>
        <time>2022-08-05T13:55:59Z</time>
      </trkpt>
      <trkpt lat="47.42168" lon="-2.44075">
        <ele>1</ele>
        <time>2022-08-05T13:57:58Z</time>
      </trkpt>
      <trkpt lat="47.42057" lon="-2.43953">
        <ele>2</ele>
        <time>2022-08-05T14:01:03Z</time>
      </trkpt>
      <trkpt lat="47.41953" lon="-2.43854">
        <ele>3</ele>
        <time>2022-08-05T14:03:48Z</time>
      </trkpt>
      <trkpt lat="47.41903" lon="-2.43728">
        <ele>6</ele>
        <time>2022-08-05T14:06:00Z</time>
      </trkpt>
      <trkpt lat="47.41824" lon="-2.43681">
        <ele>3</ele>
        <time>2022-08-05T14:07:53Z</time>
      </trkpt>
      <trkpt lat="47.41788" lon="-2.43569">
        <ele>2</ele>
        <time>2022-08-05T14:09:45Z</time>
      </trkpt>
      <trkpt lat="47.41746" lon="-2.43472">
        <ele>1</ele>
        <time>2022-08-05T14:11:29Z</time>
      </trkpt>
      <trkpt lat="47.41727" lon="-2.43324">
        <ele>1</ele>
        <time>2022-08-05T14:13:45Z</time>
      </trkpt>
      <trkpt lat="47.41646" lon="-2.43159">
        <ele>1</ele>
        <time>2022-08-05T14:16:50Z</time>
      </trkpt>
      <trkpt lat="47.41592" lon="-2.4311">
        <ele>1.4</ele>
        <time>2022-08-05T14:18:14Z</time>
      </trkpt>
      <trkpt lat="47.41557" lon="-2.42968">
        <ele>1</ele>
        <time>2022-08-05T14:20:31Z</time>
      </trkpt>
      <trkpt lat="47.41534" lon="-2.42844">
        <ele>1</ele>
        <time>2022-08-05T14:22:27Z</time>
      </trkpt>
      <trkpt lat="47.41865" lon="-2.42713">
        <ele>2</ele>
        <time>2022-08-05T14:30:04Z</time>
      </trkpt>
      <trkpt lat="47.41921" lon="-2.42687">
        <ele>2</ele>
        <time>2022-08-05T14:31:22Z</time>
      </trkpt>
      <trkpt lat="47.42012" lon="-2.42646">
        <ele>1</ele>
        <time>2022-08-05T14:33:29Z</time>
      </trkpt>
      <trkpt lat="47.42173" lon="-2.42552">
        <ele>6</ele>
        <time>2022-08-05T14:37:20Z</time>
      </trkpt>
      <trkpt lat="47.42289" lon="-2.41897">
        <ele>5</ele>
        <time>2022-08-05T14:47:32Z</time>
      </trkpt>
      <trkpt lat="47.4229" lon="-2.41769">
        <ele>5</ele>
        <time>2022-08-05T14:49:27Z</time>
      </trkpt>
      <trkpt lat="47.42158" lon="-2.41477">
        <ele>15</ele>
        <time>2022-08-05T14:54:44Z</time>
      </trkpt>
      <trkpt lat="47.42109" lon="-2.41256">
        <ele>17</ele>
        <time>2022-08-05T14:58:14Z</time>
      </trkpt>
      <trkpt lat="47.42032" lon="-2.41058">
        <ele>12</ele>
        <time>2022-08-05T15:01:40Z</time>
      </trkpt>
      <trkpt lat="47.41996" lon="-2.40679">
        <ele>6</ele>
        <time>2022-08-05T15:07:26Z</time>
      </trkpt>
      <trkpt lat="47.41891" lon="-2.40728">
        <ele>7</ele>
        <time>2022-08-05T15:09:53Z</time>
      </trkpt>
      <trkpt lat="47.41834" lon="-2.40792">
        <ele>9</ele>
        <time>2022-08-05T15:11:28Z</time>
      </trkpt>
      <trkpt lat="47.41756" lon="-2.40846">
        <ele>10</ele>
        <time>2022-08-05T15:13:23Z</time>
      </trkpt>
      <trkpt lat="47.41692" lon="-2.40945">
        <ele>10</ele>
        <time>2022-08-05T15:15:27Z</time>
      </trkpt>
      <trkpt lat="47.41521" lon="-2.40975">
        <ele>6</ele>
        <time>2022-08-05T15:19:17Z</time>
      </trkpt>
      <trkpt lat="47.41496" lon="-2.41063">
        <ele>3</ele>
        <time>2022-08-05T15:20:43Z</time>
      </trkpt>
      <trkpt lat="47.41455" lon="-2.41125">
        <ele>1</ele>
        <time>2022-08-05T15:22:01Z</time>
      </trkpt>
      <trkpt lat="47.41407" lon="-2.40964">
        <ele>2.7</ele>
        <time>2022-08-05T15:24:40Z</time>
      </trkpt>
      <trkpt lat="47.41529" lon="-2.40657">
        <ele>2</ele>
        <time>2022-08-05T15:30:02Z</time>
      </trkpt>
      <trkpt lat="47.41477" lon="-2.4043">
        <ele>1</ele>
        <time>2022-08-05T15:33:38Z</time>
      </trkpt>
      <trkpt lat="47.41489" lon="-2.40222">
        <ele>8</ele>
        <time>2022-08-05T15:36:47Z</time>
      </trkpt>
      <trkpt lat="47.41614" lon="-2.40196">
        <ele>9</ele>
        <time>2022-08-05T15:39:35Z</time>
      </trkpt>
      <trkpt lat="47.41611" lon="-2.40104">
        <ele>11</ele>
        <time>2022-08-05T15:40:58Z</time>
      </trkpt>
      <trkpt lat="47.41872" lon="-2.40245">
        <ele>5</ele>
        <time>2022-08-05T15:47:09Z</time>
      </trkpt>
      <trkpt lat="47.42142" lon="-2.40479">
        <ele>10</ele>
        <time>2022-08-05T15:54:07Z</time>
      </trkpt>
      <trkpt lat="47.4227" lon="-2.40303">
        <ele>13</ele>
        <time>2022-08-05T15:58:00Z</time>
      </trkpt>
      <trkpt lat="47.42178" lon="-2.39904">
        <ele>14</ele>
        <time>2022-08-05T16:04:21Z</time>
      </trkpt>
      <trkpt lat="47.42171" lon="-2.39629">
        <ele>8</ele>
        <time>2022-08-05T16:08:29Z</time>
      </trkpt>
      <trkpt lat="47.42331" lon="-2.39571">
        <ele>6</ele>
        <time>2022-08-05T16:12:09Z</time>
      </trkpt>
      <trkpt lat="47.4253" lon="-2.39419">
        <ele>9</ele>
        <time>2022-08-05T16:17:08Z</time>
      </trkpt>
      <trkpt lat="47.42752" lon="-2.39277">
        <ele>8</ele>
        <time>2022-08-05T16:22:31Z</time>
      </trkpt>
      <trkpt lat="47.42877" lon="-2.39104">
        <ele>13</ele>
        <time>2022-08-05T16:26:19Z</time>
      </trkpt>
      <trkpt lat="47.42941" lon="-2.39121">
        <ele>13</ele>
        <time>2022-08-05T16:27:46Z</time>
      </trkpt>
    </trkseg>
  </trk>
</gpx>